createdAt,value
2023-04-19T00:02:13.484Z,5.82
2023-04-19T00:04:40.385Z,5.07
2023-04-19T00:07:07.704Z,4.63
2023-04-19T00:09:34.381Z,5.32
2023-04-19T00:12:01.492Z,4.95
2023-04-19T00:14:28.352Z,4.95
2023-04-19T00:16:55.155Z,5.28
2023-04-19T00:19:23.283Z,4.97
2023-04-19T00:21:49.894Z,4.93
2023-04-19T00:24:16.700Z,5.50
2023-04-19T00:26:43.484Z,5.32
2023-04-19T00:29:11.205Z,5.20
2023-04-19T00:31:39.844Z,7.00
2023-04-19T00:34:07.857Z,4.72
2023-04-19T00:36:34.795Z,5.43
2023-04-19T00:39:01.442Z,5.20
2023-04-19T00:41:28.165Z,4.90
2023-04-19T00:43:55.057Z,4.75
2023-04-19T00:46:22.275Z,5.85
2023-04-19T00:48:50.561Z,5.38
2023-04-19T00:51:17.209Z,4.50
2023-04-19T00:53:44.130Z,5.47
2023-04-19T00:56:11.248Z,5.60
2023-04-19T00:58:39.333Z,4.80
2023-04-19T01:01:06.504Z,4.43
2023-04-19T01:03:35.097Z,5.10
2023-04-19T01:06:02.418Z,5.15
2023-04-19T01:08:29.116Z,5.32
2023-04-19T01:10:55.719Z,4.93
2023-04-19T01:13:22.455Z,4.75
2023-04-19T01:15:49.226Z,6.10
2023-04-19T01:18:15.873Z,6.43
2023-04-19T01:20:42.872Z,5.00
2023-04-19T01:23:11.749Z,4.93
2023-04-19T01:25:39.208Z,5.15
2023-04-19T01:28:06.283Z,5.32
2023-04-19T01:30:32.986Z,5.35
2023-04-19T01:32:59.744Z,6.07
2023-04-19T01:35:26.615Z,5.78
2023-04-19T01:37:55.580Z,5.18
2023-04-19T01:40:24.860Z,5.43
2023-04-19T01:42:51.846Z,5.07
2023-04-19T01:45:18.775Z,5.22
2023-04-19T01:47:45.531Z,5.50
2023-04-19T01:50:12.591Z,7.25
2023-04-19T01:52:39.434Z,6.07
2023-04-19T01:55:06.329Z,6.38
2023-04-19T01:57:33.059Z,5.40
2023-04-19T01:59:59.796Z,4.90
2023-04-19T02:02:27.166Z,5.38
2023-04-19T02:04:53.929Z,5.20
2023-04-19T02:07:20.661Z,5.57
2023-04-19T02:09:47.347Z,5.20
2023-04-19T02:12:14.043Z,8.20
2023-04-19T02:14:43.614Z,5.78
2023-04-19T02:17:10.279Z,5.18
2023-04-19T02:19:38.853Z,5.82
2023-04-19T02:22:05.525Z,5.90
2023-04-19T02:24:32.230Z,6.40
2023-04-19T02:26:58.946Z,5.97
2023-04-19T02:29:25.621Z,5.80
2023-04-19T02:31:52.376Z,5.07
2023-04-19T02:34:19.171Z,5.40
2023-04-19T02:36:45.971Z,5.97
2023-04-19T02:39:12.606Z,5.50
2023-04-19T02:41:39.328Z,5.40
2023-04-19T02:44:06.024Z,6.28
2023-04-19T02:46:34.392Z,5.20
2023-04-19T02:49:01.511Z,5.32
2023-04-19T02:51:28.292Z,6.45
2023-04-19T02:53:55.046Z,5.80
2023-04-19T02:56:21.849Z,5.47
2023-04-19T02:58:48.668Z,5.53
2023-04-19T03:01:15.657Z,5.32
2023-04-19T03:03:42.377Z,5.60
2023-04-19T03:06:09.164Z,5.00
2023-04-19T03:08:36.454Z,6.30
2023-04-19T03:11:03.184Z,5.10
2023-04-19T03:13:30.967Z,4.63
2023-04-19T03:15:57.737Z,6.40
2023-04-19T03:18:24.832Z,4.70
2023-04-19T03:20:54.645Z,5.72
2023-04-19T03:23:21.757Z,5.18
2023-04-19T03:25:49.791Z,4.78
2023-04-19T03:28:35.629Z,4.57
2023-04-19T03:31:22.561Z,5.28
2023-04-19T03:33:51.015Z,5.38
2023-04-19T03:36:19.513Z,5.00
2023-04-19T03:38:47.126Z,4.85
2023-04-19T03:41:25.349Z,6.00
2023-04-19T03:44:01.043Z,5.20
2023-04-19T03:46:31.554Z,5.05
2023-04-19T03:48:59.527Z,4.57
2023-04-19T03:51:27.334Z,4.80
2023-04-19T03:53:53.960Z,4.60
2023-04-19T03:56:20.771Z,5.22
2023-04-19T03:58:51.345Z,5.18
2023-04-19T04:01:22.086Z,5.20
2023-04-19T04:03:50.197Z,4.60
2023-04-19T04:06:18.318Z,5.25
2023-04-19T04:08:46.238Z,5.15
2023-04-19T04:11:12.982Z,5.40
2023-04-19T04:13:39.890Z,4.72
2023-04-19T04:16:19.140Z,4.88
2023-04-19T04:18:46.375Z,4.80
2023-04-19T04:21:14.833Z,5.13
2023-04-19T04:23:45.673Z,4.75
2023-04-19T04:26:20.385Z,4.75
2023-04-19T04:29:06.521Z,4.70
2023-04-19T04:31:36.006Z,5.50
2023-04-19T04:34:03.230Z,4.97
2023-04-19T04:36:32.209Z,5.00
2023-04-19T04:39:01.950Z,8.32
2023-04-19T04:41:31.472Z,5.10
2023-04-19T04:44:23.318Z,5.00
2023-04-19T04:46:47.788Z,5.45
2023-04-19T04:49:20.062Z,5.13
2023-04-19T04:51:46.695Z,4.80
2023-04-19T04:54:13.655Z,5.63
2023-04-19T04:56:41.165Z,5.15
2023-04-19T04:59:08.422Z,6.40
2023-04-19T05:01:38.781Z,5.25
2023-04-19T05:04:05.695Z,6.25
2023-04-19T05:06:32.967Z,6.18
2023-04-19T05:08:59.624Z,5.20
2023-04-19T05:11:36.505Z,5.22
2023-04-19T05:14:03.671Z,5.00
2023-04-19T05:16:32.825Z,5.50
2023-04-19T05:19:00.148Z,6.28
2023-04-19T05:21:29.689Z,5.35
2023-04-19T05:23:56.636Z,5.30
2023-04-19T05:26:23.600Z,5.20
2023-04-19T05:28:51.450Z,5.30
2023-04-19T05:31:22.982Z,6.22
2023-04-19T05:34:06.079Z,8.57
2023-04-19T05:36:32.894Z,15.27
2023-04-19T05:38:59.541Z,18.40
2023-04-19T05:41:26.315Z,19.90
2023-04-19T05:43:53.001Z,19.48
2023-04-19T05:46:20.649Z,16.42
2023-04-19T05:48:47.569Z,20.52
2023-04-19T05:51:40.051Z,19.65
2023-04-19T05:54:12.724Z,16.95
2023-04-19T05:56:40.920Z,15.20
2023-04-19T05:59:08.466Z,16.80
2023-04-19T06:01:35.591Z,14.77
2023-04-19T06:04:02.727Z,19.13
2023-04-19T06:06:29.814Z,16.13
2023-04-19T06:08:56.504Z,16.33
2023-04-19T06:11:31.490Z,15.50
2023-04-19T06:14:06.003Z,15.82
2023-04-19T06:16:32.923Z,11.27
2023-04-19T06:19:02.632Z,12.85
2023-04-19T06:21:32.968Z,13.70
2023-04-19T06:23:59.785Z,12.35
2023-04-19T06:26:26.465Z,15.07
2023-04-19T06:28:53.173Z,14.23
2023-04-19T06:31:20.058Z,14.48
2023-04-19T06:33:46.882Z,15.85
2023-04-19T06:36:13.661Z,11.90
2023-04-19T06:38:41.751Z,13.23
2023-04-19T06:41:09.279Z,13.88
2023-04-19T06:43:36.004Z,13.55
2023-04-19T06:46:04.600Z,13.48
2023-04-19T06:48:31.384Z,11.65
2023-04-19T06:50:58.075Z,12.32
2023-04-19T06:53:24.811Z,11.55
2023-04-19T06:55:56.497Z,13.90
2023-04-19T06:58:23.177Z,11.93
2023-04-19T07:00:49.848Z,11.10
2023-04-19T07:03:16.530Z,10.70
2023-04-19T07:05:43.287Z,10.52
2023-04-19T07:08:09.938Z,11.10
2023-04-19T07:10:36.543Z,11.63
2023-04-19T07:13:03.848Z,8.75
2023-04-19T07:15:30.749Z,11.15
2023-04-19T07:17:57.812Z,9.50
2023-04-19T07:20:24.531Z,10.90
2023-04-19T07:22:51.219Z,8.73
2023-04-19T07:25:17.982Z,11.95
2023-04-19T07:27:44.927Z,9.25
2023-04-19T07:30:11.790Z,11.40
2023-04-19T07:32:38.543Z,8.80
2023-04-19T07:35:06.019Z,10.52
2023-04-19T07:37:32.689Z,8.65
2023-04-19T07:39:59.541Z,8.02
2023-04-19T07:42:26.254Z,8.55
2023-04-19T07:44:53.002Z,8.30
2023-04-19T07:47:19.628Z,8.32
2023-04-19T07:49:46.403Z,8.77
2023-04-19T07:52:13.056Z,9.68
2023-04-19T07:54:39.878Z,8.15
2023-04-19T07:57:06.538Z,7.78
2023-04-19T07:59:33.554Z,7.13
2023-04-19T08:02:00.919Z,9.13
2023-04-19T08:04:28.211Z,8.23
2023-04-19T08:06:55.130Z,6.85
2023-04-19T08:09:21.865Z,8.43
2023-04-19T08:11:48.572Z,9.02
2023-04-19T08:14:28.412Z,8.73
2023-04-19T08:19:29.247Z,7.15
2023-04-19T08:21:56.719Z,7.68
2023-04-19T08:24:23.420Z,8.00
2023-04-19T08:26:53.947Z,8.27
2023-04-19T08:29:22.159Z,7.57
2023-04-19T08:31:49.378Z,8.43
2023-04-19T08:34:16.048Z,7.35
2023-04-19T08:36:51.868Z,6.90
2023-04-19T08:39:33.104Z,7.28
2023-04-19T08:42:07.538Z,7.63
2023-04-19T08:44:56.257Z,6.53
2023-04-19T08:47:33.515Z,7.72
2023-04-19T08:50:20.583Z,7.05
2023-04-19T08:52:58.883Z,7.95
2023-04-19T08:55:30.248Z,6.45
2023-04-19T08:57:57.568Z,7.55
2023-04-19T09:00:24.285Z,7.28
2023-04-19T09:02:52.811Z,7.00
2023-04-19T09:05:21.192Z,6.82
2023-04-19T09:07:48.191Z,7.43
2023-04-19T09:10:20.340Z,8.25
2023-04-19T09:13:04.201Z,7.47
2023-04-19T09:15:39.216Z,8.73
2023-04-19T09:18:08.183Z,7.60
2023-04-19T09:20:39.809Z,8.52
2023-04-19T09:23:09.496Z,7.88
2023-04-19T09:25:55.448Z,7.50
2023-04-19T09:28:23.852Z,6.40
2023-04-19T09:33:33.185Z,6.38
2023-04-19T09:36:00.571Z,6.28
2023-04-19T09:38:27.686Z,6.45
2023-04-19T09:41:08.171Z,6.50
2023-04-19T09:46:04.806Z,5.47
2023-04-19T09:48:31.755Z,5.97
2023-04-19T09:51:04.470Z,6.22
2023-04-19T09:53:34.615Z,5.72
2023-04-19T09:56:02.996Z,5.57
2023-04-19T09:58:46.265Z,4.93
2023-04-19T10:01:19.429Z,4.88
2023-04-19T10:03:49.279Z,6.40
2023-04-19T10:06:35.988Z,6.80
2023-04-19T10:09:04.792Z,7.05
2023-04-19T10:11:38.608Z,4.80
2023-04-19T10:14:07.860Z,4.68
2023-04-19T10:16:35.719Z,5.40
2023-04-19T10:19:11.402Z,5.35
2023-04-19T10:21:38.727Z,4.75
2023-04-19T10:24:06.100Z,4.68
2023-04-19T10:27:12.229Z,4.78
2023-04-19T10:29:59.727Z,4.30
2023-04-19T10:32:39.328Z,4.78
2023-04-19T10:35:11.632Z,4.93
2023-04-19T10:37:42.046Z,4.43
2023-04-19T10:40:09.889Z,4.20
2023-04-19T10:43:10.362Z,5.47
2023-04-19T10:45:37.367Z,4.20
2023-04-19T10:48:07.282Z,4.70
2023-04-19T10:51:01.234Z,3.92
2023-04-19T10:53:52.959Z,4.68
2023-04-19T10:56:34.710Z,4.20
2023-04-19T10:59:01.431Z,4.88
2023-04-19T11:01:44.837Z,3.92
2023-04-19T11:04:18.309Z,4.28
2023-04-19T11:06:51.612Z,4.07
2023-04-19T11:09:38.825Z,4.00
2023-04-19T11:12:11.033Z,3.70
2023-04-19T11:14:48.468Z,3.97
2023-04-19T11:17:18.040Z,4.10
2023-04-19T11:20:08.443Z,3.70
2023-04-19T11:22:36.337Z,3.90
2023-04-19T11:25:19.544Z,4.07
2023-04-19T11:27:52.194Z,3.88
2023-04-19T11:30:22.424Z,4.10
2023-04-19T11:32:50.968Z,3.97
2023-04-19T11:35:25.140Z,3.63
2023-04-19T11:37:52.570Z,3.78
2023-04-19T11:40:20.825Z,3.80
2023-04-19T11:42:49.637Z,3.85
2023-04-19T11:45:30.900Z,4.03
2023-04-19T11:47:59.464Z,3.60
2023-04-19T11:50:35.545Z,3.60
2023-04-19T11:53:20.993Z,3.53
2023-04-19T11:55:56.151Z,3.92
2023-04-19T11:58:36.129Z,3.92
2023-04-19T12:01:07.066Z,3.40
2023-04-19T12:03:35.513Z,3.22
2023-04-19T12:06:10.509Z,3.45
2023-04-19T12:08:49.653Z,3.35
2023-04-19T12:11:18.970Z,4.10
2023-04-19T12:13:45.673Z,3.88
2023-04-19T12:16:13.102Z,3.08
2023-04-19T12:18:52.727Z,3.25
2023-04-19T12:21:32.129Z,3.30
2023-04-19T12:24:00.814Z,3.25
2023-04-19T12:26:29.432Z,3.40
2023-04-19T12:28:57.585Z,3.25
2023-04-19T12:31:25.214Z,3.63
2023-04-19T12:33:51.991Z,3.15
2023-04-19T12:36:18.786Z,3.22
2023-04-19T12:38:45.641Z,3.22
2023-04-19T12:41:12.490Z,3.50
2023-04-19T12:43:39.104Z,3.28
2023-04-19T12:46:05.943Z,3.63
2023-04-19T12:48:32.836Z,3.53
2023-04-19T12:51:00.302Z,3.60
2023-04-19T12:53:27.024Z,3.78
2023-04-19T12:55:53.676Z,3.75
2023-04-19T12:58:21.356Z,3.42
2023-04-19T13:00:47.972Z,3.83
2023-04-19T13:03:14.759Z,3.03
2023-04-19T13:05:41.638Z,3.10
2023-04-19T13:08:08.291Z,3.20
2023-04-19T13:10:34.962Z,2.88
2023-04-19T13:13:01.605Z,3.30
2023-04-19T13:15:29.474Z,3.10
2023-04-19T13:17:56.294Z,3.10
2023-04-19T13:20:22.990Z,3.10
2023-04-19T13:22:49.630Z,3.00
2023-04-19T13:25:16.259Z,2.95
2023-04-19T13:27:42.987Z,3.10
2023-04-19T13:30:10.197Z,2.88
2023-04-19T13:32:36.996Z,2.83
2023-04-19T13:35:03.737Z,2.70
2023-04-19T13:37:30.650Z,3.10
2023-04-19T13:40:10.673Z,3.28
2023-04-19T13:42:43.903Z,2.97
2023-04-19T13:45:10.800Z,2.95
2023-04-19T13:47:37.482Z,2.92
2023-04-19T13:50:04.383Z,2.60
2023-04-19T13:52:31.124Z,3.08
2023-04-19T13:54:57.727Z,3.10
2023-04-19T13:57:24.413Z,2.80
2023-04-19T13:59:51.015Z,2.85
2023-04-19T14:02:17.772Z,3.00
2023-04-19T14:04:44.418Z,3.10
2023-04-19T14:07:11.237Z,2.63
2023-04-19T14:09:37.936Z,2.90
2023-04-19T14:12:04.824Z,3.10
2023-04-19T14:14:32.440Z,2.83
2023-04-19T14:16:59.218Z,2.60
2023-04-19T14:19:26.330Z,2.95
2023-04-19T14:21:53.063Z,2.97
2023-04-19T14:24:19.759Z,2.95
2023-04-19T14:26:48.684Z,2.60
2023-04-19T14:29:21.159Z,2.70
2023-04-19T14:31:47.890Z,2.70
2023-04-19T14:34:14.545Z,3.03
2023-04-19T14:36:41.156Z,2.40
2023-04-19T14:39:08.493Z,3.13
2023-04-19T14:41:35.117Z,2.30
2023-04-19T14:44:01.723Z,2.70
2023-04-19T14:46:28.426Z,2.30
2023-04-19T14:48:55.326Z,2.50
2023-04-19T14:51:22.002Z,2.63
2023-04-19T14:53:48.607Z,2.53
2023-04-19T14:56:15.248Z,2.38
2023-04-19T14:58:41.890Z,2.45
2023-04-19T15:01:15.095Z,2.25
2023-04-19T15:03:42.030Z,2.42
2023-04-19T15:06:08.970Z,2.42
2023-04-19T15:08:35.722Z,2.30
2023-04-19T15:11:02.343Z,2.38
2023-04-19T15:13:29.874Z,2.13
2023-04-19T15:15:57.490Z,2.28
2023-04-19T15:18:24.203Z,2.35
2023-04-19T15:20:50.924Z,2.35
2023-04-19T15:23:17.579Z,2.30
2023-04-19T15:25:44.715Z,2.30
2023-04-19T15:28:11.367Z,2.20
2023-04-19T15:30:37.982Z,2.28
2023-04-19T15:33:04.641Z,2.35
2023-04-19T15:35:32.153Z,2.30
2023-04-19T15:37:58.849Z,2.30
2023-04-19T15:40:25.649Z,2.30
2023-04-19T15:42:52.333Z,2.40
2023-04-19T15:45:19.263Z,2.30
2023-04-19T15:47:45.978Z,2.30
2023-04-19T15:50:12.657Z,2.00
2023-04-19T15:52:39.343Z,2.20
2023-04-19T15:55:06.104Z,2.13
2023-04-19T15:57:32.720Z,2.08
2023-04-19T15:59:59.491Z,2.17
2023-04-19T16:02:26.235Z,1.90
2023-04-19T16:04:53.203Z,2.40
2023-04-19T16:07:20.034Z,2.20
2023-04-19T16:09:46.688Z,2.30
2023-04-19T16:12:13.293Z,1.95
2023-04-19T16:14:39.942Z,2.22
2023-04-19T16:17:06.801Z,2.17
2023-04-19T16:19:33.407Z,2.28
2023-04-19T16:22:02.205Z,2.10
2023-04-19T16:24:29.049Z,1.80
2023-04-19T16:26:55.796Z,2.20
2023-04-19T16:29:22.488Z,3.22
2023-04-19T16:31:51.955Z,3.45
2023-04-19T16:34:19.816Z,2.20
2023-04-19T16:36:46.524Z,4.53
2023-04-19T16:39:13.339Z,3.08
2023-04-19T16:41:40.050Z,1.95
2023-04-19T16:44:06.685Z,2.25
2023-04-19T16:46:33.555Z,2.70
2023-04-19T16:49:01.051Z,2.53
2023-04-19T16:51:28.402Z,2.63
2023-04-19T16:53:56.092Z,2.10
2023-04-19T16:56:22.803Z,2.45
2023-04-19T16:58:50.173Z,4.35
2023-04-19T17:01:16.999Z,2.00
2023-04-19T17:03:45.098Z,2.35
2023-04-19T17:06:11.828Z,1.83
2023-04-19T17:08:38.758Z,1.80
2023-04-19T17:11:05.573Z,1.70
2023-04-19T17:13:32.167Z,1.80
2023-04-19T17:15:59.004Z,2.53
2023-04-19T17:18:25.892Z,2.03
2023-04-19T17:20:52.569Z,1.83
2023-04-19T17:23:19.184Z,3.75
2023-04-19T17:25:45.999Z,1.42
2023-04-19T17:28:12.674Z,1.77
2023-04-19T17:30:39.631Z,2.25
2023-04-19T17:33:06.357Z,1.75
2023-04-19T17:35:33.019Z,1.80
2023-04-19T17:37:59.683Z,1.90
2023-04-19T17:40:28.023Z,1.70
2023-04-19T17:42:56.286Z,1.92
2023-04-19T17:45:24.989Z,1.80
2023-04-19T17:47:55.325Z,2.30
2023-04-19T17:50:22.768Z,1.80
2023-04-19T17:52:49.523Z,1.85
2023-04-19T17:55:16.220Z,2.25
2023-04-19T17:57:47.432Z,2.17
2023-04-19T18:00:15.134Z,1.80
2023-04-19T18:02:41.890Z,2.10
2023-04-19T18:05:09.002Z,1.98
2023-04-19T18:07:36.833Z,1.70
2023-04-19T18:10:04.236Z,2.92
2023-04-19T18:12:31.009Z,1.80
2023-04-19T18:14:57.721Z,2.05
2023-04-19T18:17:24.371Z,1.85
2023-04-19T18:19:51.222Z,1.98
2023-04-19T18:22:18.211Z,2.05
2023-04-19T18:24:46.941Z,3.33
2023-04-19T18:27:13.954Z,1.65
2023-04-19T18:29:40.828Z,1.92
2023-04-19T18:32:07.589Z,1.70
2023-04-19T18:34:34.311Z,1.50
2023-04-19T18:37:02.856Z,2.03
2023-04-19T18:39:29.514Z,1.70
2023-04-19T18:41:58.163Z,1.60
2023-04-19T18:44:38.900Z,1.73
2023-04-19T18:47:11.626Z,1.70
2023-04-19T18:49:38.305Z,1.67
2023-04-19T18:52:05.541Z,1.70
2023-04-19T18:54:32.174Z,1.63
2023-04-19T18:57:21.588Z,1.70
2023-04-19T18:59:45.828Z,2.35
2023-04-19T19:02:12.544Z,1.70
2023-04-19T19:04:52.282Z,2.00
2023-04-19T19:07:35.698Z,1.70
2023-04-19T19:10:17.294Z,1.88
2023-04-19T19:12:47.680Z,2.83
2023-04-19T19:15:14.620Z,2.72
2023-04-19T19:17:41.393Z,1.75
2023-04-19T19:20:09.917Z,1.80
2023-04-19T19:22:36.650Z,1.70
2023-04-19T19:25:03.745Z,1.92
2023-04-19T19:27:30.753Z,3.03
2023-04-19T19:29:58.805Z,2.08
2023-04-19T19:32:25.859Z,1.58
2023-04-19T19:34:56.701Z,1.98
2023-04-19T19:37:27.821Z,1.90
2023-04-19T19:39:56.313Z,1.90
2023-04-19T19:42:23.681Z,2.28
2023-04-19T19:44:56.435Z,2.22
2023-04-19T19:47:24.829Z,1.95
2023-04-19T19:50:33.676Z,2.88
2023-04-19T19:52:38.586Z,2.67
2023-04-19T19:55:06.197Z,1.60
2023-04-19T20:00:22.856Z,1.77
2023-04-19T20:05:19.857Z,1.70
2023-04-19T20:08:01.273Z,2.28
2023-04-19T20:10:29.639Z,1.98
2023-04-19T20:12:57.245Z,1.60
2023-04-19T20:15:24.514Z,2.22
2023-04-19T20:17:51.191Z,2.03
2023-04-19T20:20:18.070Z,2.50
2023-04-19T20:22:44.956Z,4.93
2023-04-19T20:25:13.142Z,2.58
2023-04-19T20:27:39.812Z,2.92
2023-04-19T20:30:10.032Z,2.35
2023-04-19T20:32:36.854Z,3.47
2023-04-19T20:35:09.486Z,2.92
2023-04-19T20:37:37.709Z,2.40
2023-04-19T20:40:07.526Z,7.85
2023-04-19T20:42:34.202Z,4.68
2023-04-19T20:45:00.894Z,7.20
2023-04-19T20:47:27.658Z,8.10
2023-04-19T20:49:54.281Z,8.27
2023-04-19T20:52:21.217Z,5.63
2023-04-19T20:54:47.868Z,4.82
2023-04-19T20:57:15.279Z,7.13
2023-04-19T20:59:42.254Z,5.43
2023-04-19T21:02:09.286Z,5.65
2023-04-19T21:04:36.312Z,5.93
2023-04-19T21:07:03.185Z,5.05
2023-04-19T21:09:29.838Z,5.15
2023-04-19T21:11:56.566Z,3.90
2023-04-19T21:14:23.210Z,4.57
2023-04-19T21:16:49.873Z,5.22
2023-04-19T21:19:16.784Z,5.75
2023-04-19T21:21:43.486Z,5.13
2023-04-19T21:24:10.164Z,6.20
2023-04-19T21:26:36.873Z,3.60
2023-04-19T21:29:03.483Z,6.75
2023-04-19T21:31:30.161Z,4.47
2023-04-19T21:33:57.604Z,5.03
2023-04-19T21:36:24.344Z,5.93
2023-04-19T21:38:51.107Z,5.75
2023-04-19T21:41:17.748Z,6.28
2023-04-19T21:43:44.596Z,7.95
2023-04-19T21:46:11.320Z,6.85
2023-04-19T21:48:38.031Z,6.50
2023-04-19T21:51:05.012Z,8.38
2023-04-19T21:53:31.600Z,5.72
2023-04-19T21:55:58.267Z,5.40
2023-04-19T21:58:24.887Z,6.85
2023-04-19T22:00:53.638Z,3.70
2023-04-19T22:03:20.623Z,6.18
2023-04-19T22:05:47.486Z,4.90
2023-04-19T22:08:14.156Z,4.57
2023-04-19T22:10:41.135Z,4.78
2023-04-19T22:13:08.862Z,4.82
2023-04-19T22:15:36.420Z,4.68
2023-04-19T22:18:03.986Z,5.55
2023-04-19T22:20:33.786Z,6.53
2023-04-19T22:23:00.644Z,4.10
2023-04-19T22:25:27.402Z,4.50
2023-04-19T22:27:54.161Z,4.68
2023-04-19T22:30:20.839Z,4.93
2023-04-19T22:32:48.125Z,5.45
2023-04-19T22:35:15.303Z,4.45
2023-04-19T22:37:42.404Z,4.03
2023-04-19T22:40:09.695Z,3.50
2023-04-19T22:42:37.226Z,4.10
2023-04-19T22:45:04.371Z,6.32
2023-04-19T22:47:32.375Z,4.45
2023-04-19T22:49:59.356Z,4.82
2023-04-19T22:52:27.727Z,5.35
2023-04-19T22:54:54.420Z,4.68
2023-04-19T22:57:21.415Z,5.30
2023-04-19T22:59:48.871Z,4.68
2023-04-19T23:02:15.548Z,3.67
2023-04-19T23:04:44.614Z,4.28
2023-04-19T23:07:11.818Z,3.45
2023-04-19T23:09:39.425Z,3.78
2023-04-19T23:12:07.027Z,3.47
2023-04-19T23:14:33.825Z,3.53
2023-04-19T23:17:02.767Z,3.53
2023-04-19T23:19:30.457Z,3.53
2023-04-19T23:21:57.225Z,3.28
2023-04-19T23:24:24.126Z,3.97
2023-04-19T23:26:51.165Z,3.33
2023-04-19T23:29:17.977Z,3.70
2023-04-19T23:31:44.941Z,3.65
2023-04-19T23:34:11.626Z,3.75
2023-04-19T23:36:38.310Z,4.05
2023-04-19T23:39:05.126Z,3.22
2023-04-19T23:41:31.865Z,3.90
2023-04-19T23:43:58.528Z,4.07
2023-04-19T23:46:25.444Z,3.08
2023-04-19T23:48:52.133Z,2.90
2023-04-19T23:51:18.884Z,3.55
2023-04-19T23:53:45.507Z,4.60
2023-04-19T23:56:12.155Z,3.33
2023-04-19T23:58:38.809Z,3.03
